LLHZ

Details ICAO LLHZ
Name Herzelia
Region Israel
Timezone Asia/Jerusalem (UTC+2.0)
Plans Departing 3
Arriving 4
Stats Elevation 121 ft / 37 m (AMSL)
Location 32.180553° 34.834724°
Runways 1
Magnetic Variation 4.706° E
Sunrise 2017-12-16 04:36:08 UTC / 2017-12-16 06:36:08 Local
Sunset 2017-12-16 14:39:07 UTC / 2017-12-16 16:39:07 Local
Advertisement - Login to hide

Runways

ID Width Length Bearing (true) Bearing (mag) Surface Threshold Offset Overrun Length
11 59 ft / 18 m 2,965 ft / 904 m 110.00° 105.29° Asphalt 229 ft / 70 m 66 ft / 20 m
29 59 ft / 18 m 2,965 ft / 904 m 290.00° 285.29° Asphalt 229 ft / 70 m 66 ft / 20 m

Map

Weather


0- 5 10 15 20 25 30 35+ Temperature / ° C

Clouds and Precipitation
Forecast for 2017-12-16 18:00 UTC. Updated 2 hours ago

Ground ~20,000 ft ~40,000 ft Winds

METAR

Not found

TAF

TAF LLHZ 161710Z 1618/1718 VRB04KT CAVOK BECMG 1707/1710 33007KT TX23/1712Z TN10/1704Z
Warning: Do not use this data for real-world aviation or navigation. No guarantee of current accuracy is given.